Time;durP1;ratioP1;P1;durP2;ratioP2;P2;SDS_P1;SDS_P2;PMS_P1;PMS_P2;Temp;Humidity;BMP_temperature;BMP_pressure;BME280_temperature;BME280_humidity;BME280_pressure;Samples;Min_cycle;Max_cycle;Signal;HPM_P1;HPM_P2
2022/03/22 00:01:24;;;;;;;;;;;7.20;99.90;;;;;;6245075;23;20327;-84
2022/03/22 00:03:50;;;;;;;;;;;7.10;99.90;;;;;;6244946;23;19903;-84
2022/03/22 00:06:18;;;;;;;;;;;7.20;99.90;;;;;;6245871;23;20285;-84
2022/03/22 00:08:44;;;;;;;;;;;7.20;99.90;;;;;;6218235;23;19904;-84
2022/03/22 00:11:11;;;;;;;;;;;7.20;99.90;;;;;;6245259;23;20360;-83
2022/03/22 00:13:37;;;;;;;;;;;7.20;99.90;;;;;;6245152;23;19907;-82
2022/03/22 00:16:03;;;;;;;;;;;7.20;99.90;;;;;;6245137;23;19904;-82
2022/03/22 00:18:29;;;;;;;;;;;7.20;99.90;;;;;;6245589;23;19904;-82
2022/03/22 00:20:56;;;;;;;;;;;7.10;99.90;;;;;;6245817;23;19904;-82
2022/03/22 00:23:22;;;;;;;;;;;7.10;99.90;;;;;;6245069;23;19910;-82
2022/03/22 00:25:48;;;;;;;;;;;7.10;99.90;;;;;;6244809;23;19935;-82
2022/03/22 00:28:14;;;;;;;;;;;7.10;99.90;;;;;;6245060;23;19958;-82
2022/03/22 00:30:40;;;;;;;;;;;7.10;99.90;;;;;;6217834;23;19990;-82
2022/03/22 00:33:06;;;;;;;;;;;7.00;99.90;;;;;;6244911;23;19908;-82
2022/03/22 00:35:36;;;;;;;;;;;7.10;99.90;;;;;;6245352;23;19973;-83
2022/03/22 00:38:03;;;;;;;;;;;7.00;99.90;;;;;;6244784;23;19910;-83
2022/03/22 00:40:29;;;;;;;;;;;7.00;99.90;;;;;;6244756;23;20304;-82
2022/03/22 00:43:10;;;;;;;;;;;6.90;99.90;;;;;;6217887;23;20049;-83
2022/03/22 00:45:37;;;;;;;;;;;6.90;99.90;;;;;;6246790;23;20332;-83
2022/03/22 00:48:04;;;;;;;;;;;6.90;99.90;;;;;;6245360;23;20313;-83
2022/03/22 00:50:33;;;;;;;;;;;7.00;99.90;;;;;;6245111;23;19926;-83
2022/03/22 00:52:59;;;;;;;;;;;7.00;99.90;;;;;;6217746;23;19915;-82
2022/03/22 00:55:27;;;;;;;;;;;7.00;99.90;;;;;;6246233;23;19904;-84
2022/03/22 00:57:53;;;;;;;;;;;7.00;99.90;;;;;;6248440;23;20197;-84
2022/03/22 01:00:20;;;;;;;;;;;7.00;99.90;;;;;;6247168;23;20038;-84
2022/03/22 01:02:49;;;;;;;;;;;7.10;99.90;;;;;;6246151;23;19903;-84
2022/03/22 01:05:17;;;;;;;;;;;7.00;99.90;;;;;;6245507;23;19903;-84
2022/03/22 01:07:45;;;;;;;;;;;7.10;99.90;;;;;;6245694;23;19998;-84
2022/03/22 01:10:11;;;;;;;;;;;7.10;99.90;;;;;;6218590;23;19990;-84
2022/03/22 01:12:38;;;;;;;;;;;7.10;99.90;;;;;;6245554;23;19912;-85
2022/03/22 01:15:05;;;;;;;;;;;7.00;99.90;;;;;;6245021;23;20378;-82
2022/03/22 01:17:31;;;;;;;;;;;6.90;99.90;;;;;;6244697;23;19903;-84
2022/03/22 01:19:57;;;;;;;;;;;6.80;99.90;;;;;;6217571;23;19911;-84
2022/03/22 01:22:24;;;;;;;;;;;6.70;99.90;;;;;;6244966;23;19903;-83
2022/03/22 01:24:52;;;;;;;;;;;6.80;99.90;;;;;;6217495;23;19968;-84
2022/03/22 01:27:20;;;;;;;;;;;6.80;99.90;;;;;;6244513;23;20374;-82
2022/03/22 01:29:46;;;;;;;;;;;6.80;99.90;;;;;;6244271;23;19903;-82
2022/03/22 01:32:12;;;;;;;;;;;6.80;99.90;;;;;;6244558;23;20319;-83
2022/03/22 01:34:39;;;;;;;;;;;6.80;99.90;;;;;;6244327;23;19915;-82
2022/03/22 01:37:05;;;;;;;;;;;6.70;99.90;;;;;;6244268;23;19903;-82
2022/03/22 01:39:31;;;;;;;;;;;6.70;99.90;;;;;;6244773;23;19999;-84
2022/03/22 01:41:57;;;;;;;;;;;6.70;99.90;;;;;;6244339;23;20339;-83
2022/03/22 01:44:24;;;;;;;;;;;6.60;99.90;;;;;;6244224;23;20331;-83
2022/03/22 01:46:51;;;;;;;;;;;6.70;99.90;;;;;;6217250;23;19908;-83
2022/03/22 01:49:18;;;;;;;;;;;6.70;99.90;;;;;;6244438;23;20328;-84
2022/03/22 01:51:45;;;;;;;;;;;6.60;99.90;;;;;;6244203;23;19954;-83
2022/03/22 01:54:12;;;;;;;;;;;6.70;99.90;;;;;;6244499;23;19907;-84
2022/03/22 01:56:38;;;;;;;;;;;6.70;99.90;;;;;;6244556;23;19911;-84
2022/03/22 01:59:03;;;;;;;;;;;6.60;99.90;;;;;;6244577;23;19904;-84
2022/03/22 02:07:00;;;;;;;;;;;6.60;99.90;;;;;;6244911;23;19950;-83
2022/03/22 02:09:26;;;;;;;;;;;6.60;99.90;;;;;;6244566;23;19910;-84
2022/03/22 02:11:51;;;;;;;;;;;6.60;99.90;;;;;;6244566;23;19912;-83
2022/03/22 02:14:17;;;;;;;;;;;6.50;99.90;;;;;;6244532;23;20258;-83
2022/03/22 02:16:43;;;;;;;;;;;6.50;99.90;;;;;;6244388;23;19978;-83
2022/03/22 02:19:14;;;;;;;;;;;6.50;99.90;;;;;;6244971;23;19978;-83
2022/03/22 02:21:43;;;;;;;;;;;6.50;99.90;;;;;;6246903;23;19907;-84
2022/03/22 02:24:09;;;;;;;;;;;6.40;99.90;;;;;;6219575;23;19916;-85
2022/03/22 02:26:36;;;;;;;;;;;6.40;99.90;;;;;;6219880;23;20301;-85
2022/03/22 02:29:05;;;;;;;;;;;6.40;99.90;;;;;;6219501;23;19904;-85
2022/03/22 02:31:32;;;;;;;;;;;6.30;99.90;;;;;;6219145;23;19907;-85
2022/03/22 02:33:58;;;;;;;;;;;6.30;99.90;;;;;;6246874;23;19954;-85
2022/03/22 02:36:24;;;;;;;;;;;6.30;99.90;;;;;;6246589;23;19903;-85
2022/03/22 02:38:51;;;;;;;;;;;6.30;99.90;;;;;;6246507;23;20174;-84
2022/03/22 02:41:18;;;;;;;;;;;6.30;99.90;;;;;;6246546;23;19965;-84
2022/03/22 02:43:45;;;;;;;;;;;6.30;99.90;;;;;;6246807;23;19949;-84
2022/03/22 02:46:11;;;;;;;;;;;6.30;99.90;;;;;;6246173;23;20244;-83
2022/03/22 02:48:36;;;;;;;;;;;6.30;99.90;;;;;;6246884;23;19970;-83
2022/03/22 02:51:02;;;;;;;;;;;6.30;99.90;;;;;;6245996;23;19904;-83
2022/03/22 02:53:28;;;;;;;;;;;6.30;99.90;;;;;;6246236;23;19907;-83
2022/03/22 02:55:54;;;;;;;;;;;6.20;99.90;;;;;;6246035;23;19949;-83
2022/03/22 02:58:20;;;;;;;;;;;6.20;99.90;;;;;;6246553;23;19993;-83
2022/03/22 03:01:13;;;;;;;;;;;6.20;99.90;;;;;;6246586;23;20275;-83
2022/03/22 03:03:39;;;;;;;;;;;6.20;99.90;;;;;;6246414;23;20284;-84
2022/03/22 03:06:06;;;;;;;;;;;6.20;99.90;;;;;;6220031;23;19904;-84
2022/03/22 03:08:32;;;;;;;;;;;6.20;99.90;;;;;;6246479;23;19904;-84
2022/03/22 03:10:58;;;;;;;;;;;6.20;99.90;;;;;;6219050;23;19910;-83
2022/03/22 03:13:23;;;;;;;;;;;6.20;99.90;;;;;;6226428;22;19920;-83
2022/03/22 03:15:52;;;;;;;;;;;6.20;99.90;;;;;;6214442;23;19953;-83
2022/03/22 03:18:18;;;;;;;;;;;6.20;99.90;;;;;;6214729;23;20371;-83
2022/03/22 03:20:44;;;;;;;;;;;6.20;99.90;;;;;;6215678;23;19975;-82
2022/03/22 03:23:10;;;;;;;;;;;6.20;99.90;;;;;;6220215;23;19908;-82
2022/03/22 03:25:36;;;;;;;;;;;6.20;99.90;;;;;;6221998;23;20325;-83
2022/03/22 03:28:02;;;;;;;;;;;6.20;99.90;;;;;;6219913;23;19915;-84
2022/03/22 03:30:29;;;;;;;;;;;6.20;99.90;;;;;;6216335;23;19915;-84
2022/03/22 03:32:55;;;;;;;;;;;6.20;99.90;;;;;;6215409;23;19934;-84
2022/03/22 03:35:21;;;;;;;;;;;6.30;99.90;;;;;;6215909;23;20323;-83
2022/03/22 03:37:47;;;;;;;;;;;6.20;99.90;;;;;;6213763;23;20058;-85
2022/03/22 03:40:13;;;;;;;;;;;6.30;99.90;;;;;;6214211;23;20241;-83
2022/03/22 03:42:43;;;;;;;;;;;6.20;99.90;;;;;;6215523;23;19904;-84
2022/03/22 03:47:55;;;;;;;;;;;6.20;99.90;;;;;;6215845;23;19911;-84
2022/03/22 03:50:21;;;;;;;;;;;6.30;99.90;;;;;;6213960;23;19908;-84
2022/03/22 03:52:47;;;;;;;;;;;6.20;99.90;;;;;;6212807;23;20312;-84
2022/03/22 03:55:13;;;;;;;;;;;6.20;99.90;;;;;;6215953;23;19958;-84
2022/03/22 03:57:42;;;;;;;;;;;6.30;99.90;;;;;;6216102;23;20221;-84
2022/03/22 04:00:08;;;;;;;;;;;6.30;99.90;;;;;;6215381;23;19919;-83
2022/03/22 04:02:34;;;;;;;;;;;6.30;99.90;;;;;;6215988;23;19932;-83
2022/03/22 04:04:59;;;;;;;;;;;6.30;99.90;;;;;;6215411;23;20310;-83
2022/03/22 04:07:26;;;;;;;;;;;6.30;99.90;;;;;;6215511;23;20241;-84
2022/03/22 04:09:54;;;;;;;;;;;6.20;99.90;;;;;;6215688;23;20316;-83
2022/03/22 04:12:23;;;;;;;;;;;6.20;99.90;;;;;;6215082;23;19948;-82
2022/03/22 04:14:51;;;;;;;;;;;6.20;99.90;;;;;;6215549;23;19943;-83
2022/03/22 04:17:17;;;;;;;;;;;6.20;99.90;;;;;;6213553;23;20286;-83
2022/03/22 04:19:43;;;;;;;;;;;6.10;99.90;;;;;;6215984;23;20055;-83
2022/03/22 04:22:08;;;;;;;;;;;6.10;99.90;;;;;;6214985;23;20233;-83
2022/03/22 04:24:34;;;;;;;;;;;6.10;99.90;;;;;;6215430;23;19914;-83
2022/03/22 04:32:44;;;;;;;;;;;6.10;99.90;;;;;;6215619;23;20401;-82
2022/03/22 04:35:11;;;;;;;;;;;6.10;99.90;;;;;;6214293;23;19908;-82
2022/03/22 04:37:38;;;;;;;;;;;6.10;99.90;;;;;;6216662;23;19907;-82
2022/03/22 04:40:04;;;;;;;;;;;6.10;99.90;;;;;;6214378;23;19915;-82
2022/03/22 04:42:29;;;;;;;;;;;6.10;99.90;;;;;;6215458;23;19904;-84
2022/03/22 04:44:55;;;;;;;;;;;6.10;99.90;;;;;;6214459;23;19911;-91
2022/03/22 04:47:21;;;;;;;;;;;6.20;99.90;;;;;;6219057;23;20222;-92
2022/03/22 04:49:47;;;;;;;;;;;6.20;99.90;;;;;;6215156;23;19927;-91
2022/03/22 04:57:41;;;;;;;;;;;6.20;99.90;;;;;;6226307;23;19911;-84
2022/03/22 05:00:08;;;;;;;;;;;6.10;99.90;;;;;;6222561;23;19904;-90
2022/03/22 05:02:33;;;;;;;;;;;6.10;99.90;;;;;;6216889;23;19911;-91
2022/03/22 05:05:00;;;;;;;;;;;6.00;99.90;;;;;;6215492;23;19947;-91
2022/03/22 05:07:26;;;;;;;;;;;6.00;99.90;;;;;;6215109;23;20022;-89
2022/03/22 05:09:52;;;;;;;;;;;5.90;99.90;;;;;;6214863;23;19911;-92
2022/03/22 05:12:18;;;;;;;;;;;5.90;99.90;;;;;;6215092;23;20228;-92
2022/03/22 05:14:47;;;;;;;;;;;5.80;99.90;;;;;;6217108;23;19903;-92
2022/03/22 05:17:13;;;;;;;;;;;5.80;99.90;;;;;;6215611;23;19911;-91
2022/03/22 05:19:39;;;;;;;;;;;5.90;99.90;;;;;;6215532;23;19918;-90
2022/03/22 05:22:05;;;;;;;;;;;6.00;99.90;;;;;;6217399;23;19911;-92
2022/03/22 05:24:31;;;;;;;;;;;6.10;99.90;;;;;;6222583;23;19904;-91
2022/03/22 05:26:57;;;;;;;;;;;6.10;99.90;;;;;;6225742;23;19908;-90
2022/03/22 05:29:23;;;;;;;;;;;6.10;99.90;;;;;;6227016;23;19904;-92
2022/03/22 05:31:49;;;;;;;;;;;6.10;99.90;;;;;;6230913;23;19919;-89
2022/03/22 05:34:14;;;;;;;;;;;6.20;99.90;;;;;;6235774;23;19911;-90
2022/03/22 05:36:40;;;;;;;;;;;6.20;99.90;;;;;;6234561;23;19987;-89
2022/03/22 05:39:06;;;;;;;;;;;6.20;99.90;;;;;;6223560;23;19908;-87
2022/03/22 05:41:32;;;;;;;;;;;6.30;99.90;;;;;;6216505;23;19904;-91
2022/03/22 05:43:59;;;;;;;;;;;6.50;99.90;;;;;;6216182;23;19904;-91
2022/03/22 05:46:24;;;;;;;;;;;6.50;99.90;;;;;;6215871;23;19954;-90
2022/03/22 05:48:50;;;;;;;;;;;6.50;99.90;;;;;;6216228;23;19908;-91
2022/03/22 05:51:19;;;;;;;;;;;6.50;99.90;;;;;;6215865;23;19912;-92
2022/03/22 05:53:45;;;;;;;;;;;6.50;99.90;;;;;;6216579;23;19949;-91
2022/03/22 05:56:11;;;;;;;;;;;6.70;99.90;;;;;;6217968;23;19915;-92
2022/03/22 05:58:40;;;;;;;;;;;7.60;99.90;;;;;;6217961;23;20210;-90
2022/03/22 06:01:06;;;;;;;;;;;8.40;99.90;;;;;;6220238;23;20332;-90
2022/03/22 06:03:33;;;;;;;;;;;9.30;99.90;;;;;;6218716;23;19939;-91
2022/03/22 06:05:59;;;;;;;;;;;10.20;99.90;;;;;;6220073;23;19911;-90
2022/03/22 06:08:24;;;;;;;;;;;11.00;99.90;;;;;;6217212;23;19980;-91
2022/03/22 06:10:50;;;;;;;;;;;11.90;99.90;;;;;;6217911;23;19986;-90
2022/03/22 06:13:16;;;;;;;;;;;12.60;99.90;;;;;;6217923;23;20286;-91
2022/03/22 06:15:43;;;;;;;;;;;13.30;99.10;;;;;;6220022;23;19911;-90
2022/03/22 06:18:11;;;;;;;;;;;14.10;98.50;;;;;;6219724;23;19903;-88
2022/03/22 06:20:41;;;;;;;;;;;15.50;95.50;;;;;;6218128;23;19904;-89
2022/03/22 06:23:11;;;;;;;;;;;16.50;93.90;;;;;;6244870;23;20023;-88
2022/03/22 06:25:37;;;;;;;;;;;15.90;93.30;;;;;;6245244;23;19908;-88
2022/03/22 06:28:04;;;;;;;;;;;15.20;93.80;;;;;;6228874;23;19959;-90
2022/03/22 06:30:30;;;;;;;;;;;15.50;94.60;;;;;;6219368;23;19912;-90
2022/03/22 06:32:57;;;;;;;;;;;16.00;93.60;;;;;;6209359;23;19920;-92
2022/03/22 06:35:24;;;;;;;;;;;16.80;92.10;;;;;;6190438;23;19958;-92
2022/03/22 06:37:51;;;;;;;;;;;17.00;91.20;;;;;;6193680;23;19916;-91
2022/03/22 06:40:18;;;;;;;;;;;17.40;90.80;;;;;;6201502;23;19904;-91
2022/03/22 06:42:44;;;;;;;;;;;18.20;90.00;;;;;;6240588;23;19919;-86
2022/03/22 06:45:10;;;;;;;;;;;18.00;88.20;;;;;;6200516;23;19904;-87
2022/03/22 06:50:11;;;;;;;;;;;18.70;86.20;;;;;;6236910;23;19920;-90
2022/03/22 06:52:38;;;;;;;;;;;19.50;83.90;;;;;;6213301;23;19916;-86
2022/03/22 07:00:42;;;;;;;;;;;19.40;83.00;;;;;;6267429;22;19995;-89
2022/03/22 07:03:08;;;;;;;;;;;20.40;83.30;;;;;;6237036;23;19926;-90
2022/03/22 07:05:34;;;;;;;;;;;21.70;78.90;;;;;;6242549;22;19920;-86
2022/03/22 07:08:02;;;;;;;;;;;19.70;80.30;;;;;;6218039;23;20330;-90
2022/03/22 07:11:47;;;;;;;;;;;19.00;84.80;;;;;;6221239;23;20309;-88
2022/03/22 07:13:32;;;;;;;;;;;18.60;85.10;;;;;;6221510;23;19916;-87
2022/03/22 07:15:59;;;;;;;;;;;19.50;84.70;;;;;;6218565;23;20229;-85
2022/03/22 07:18:25;;;;;;;;;;;20.90;81.00;;;;;;6222279;23;20332;-89
2022/03/22 07:20:50;;;;;;;;;;;20.90;80.80;;;;;;6250272;23;19915;-90
2022/03/22 07:23:17;;;;;;;;;;;21.30;79.60;;;;;;6222731;23;19911;-90
2022/03/22 07:25:42;;;;;;;;;;;20.90;78.50;;;;;;6223429;23;19954;-90
2022/03/22 07:28:08;;;;;;;;;;;21.60;77.50;;;;;;6251998;23;19948;-88
2022/03/22 07:30:34;;;;;;;;;;;22.60;76.10;;;;;;6226322;23;20293;-89
2022/03/22 07:33:05;;;;;;;;;;;21.90;74.00;;;;;;6256572;23;19911;-89
2022/03/22 07:35:32;;;;;;;;;;;21.60;74.10;;;;;;6222651;23;19904;-88
2022/03/22 07:37:58;;;;;;;;;;;21.40;74.90;;;;;;6224777;23;19998;-90
2022/03/22 07:40:24;;;;;;;;;;;21.10;75.10;;;;;;6223968;23;19904;-92
2022/03/22 07:42:50;;;;;;;;;;;20.40;76.70;;;;;;6225660;23;19912;-93
2022/03/22 07:45:19;;;;;;;;;;;19.10;77.50;;;;;;6224878;23;19907;-92
2022/03/22 07:47:45;;;;;;;;;;;17.90;79.90;;;;;;6251228;23;19903;-92
2022/03/22 07:53:01;;;;;;;;;;;17.40;82.30;;;;;;6249114;23;19918;-93
2022/03/22 07:55:31;;;;;;;;;;;17.10;82.10;;;;;;6222227;23;19911;-92
2022/03/22 07:57:58;;;;;;;;;;;16.60;86.00;;;;;;6225771;23;19904;-84
2022/03/22 08:00:28;;;;;;;;;;;16.60;84.50;;;;;;6223926;23;20280;-88
2022/03/22 08:02:54;;;;;;;;;;;16.20;84.20;;;;;;6245150;23;19927;-80
2022/03/22 08:05:20;;;;;;;;;;;16.20;84.70;;;;;;6244783;23;20325;-80
2022/03/22 08:07:46;;;;;;;;;;;16.10;84.80;;;;;;6244554;23;19904;-80
2022/03/22 08:10:13;;;;;;;;;;;16.40;84.40;;;;;;6244922;23;20450;-76
2022/03/22 08:12:39;;;;;;;;;;;16.00;82.30;;;;;;6244666;23;19911;-75
2022/03/22 08:15:05;;;;;;;;;;;15.70;82.80;;;;;;6217518;23;20276;-77
2022/03/22 08:17:34;;;;;;;;;;;15.20;82.30;;;;;;6243980;23;19916;-78
2022/03/22 08:19:59;;;;;;;;;;;15.20;82.20;;;;;;6245524;23;19980;-77
2022/03/22 08:22:25;;;;;;;;;;;15.20;82.00;;;;;;6218551;23;19939;-77
2022/03/22 08:24:52;;;;;;;;;;;15.00;81.30;;;;;;6245962;23;20353;-79
2022/03/22 08:27:18;;;;;;;;;;;14.90;80.90;;;;;;6218396;23;19904;-77
2022/03/22 08:29:44;;;;;;;;;;;14.40;80.10;;;;;;6245748;23;19911;-78
2022/03/22 08:32:10;;;;;;;;;;;13.40;83.30;;;;;;6246250;23;20211;-78
2022/03/22 08:34:36;;;;;;;;;;;13.20;84.50;;;;;;6218701;23;19910;-78
2022/03/22 08:37:03;;;;;;;;;;;13.00;85.80;;;;;;6245912;23;19904;-78
2022/03/22 08:39:28;;;;;;;;;;;13.00;83.20;;;;;;6246292;23;19903;-78
2022/03/22 08:41:54;;;;;;;;;;;13.00;84.70;;;;;;6245986;23;19911;-71
2022/03/22 08:44:20;;;;;;;;;;;12.90;85.20;;;;;;6245696;23;19904;-77
2022/03/22 08:47:01;;;;;;;;;;;13.00;86.40;;;;;;6245850;23;19910;-76
2022/03/22 08:49:26;;;;;;;;;;;13.60;85.70;;;;;;6244984;23;19904;-77
2022/03/22 08:51:52;;;;;;;;;;;13.70;84.70;;;;;;6244928;23;20021;-77
2022/03/22 08:54:19;;;;;;;;;;;14.00;84.40;;;;;;6216972;23;19904;-75
2022/03/22 08:56:45;;;;;;;;;;;13.90;79.30;;;;;;6244159;23;19986;-77
2022/03/22 08:59:10;;;;;;;;;;;13.70;79.00;;;;;;6244649;23;19903;-76
2022/03/22 09:01:36;;;;;;;;;;;13.70;79.60;;;;;;6244323;23;20159;-76
2022/03/22 09:06:55;;;;;;;;;;;14.10;77.50;;;;;;6244794;23;20289;-77
2022/03/22 09:09:21;;;;;;;;;;;14.20;74.20;;;;;;6244528;23;19903;-77
2022/03/22 09:11:47;;;;;;;;;;;13.20;81.30;;;;;;6245202;23;19912;-77
2022/03/22 09:14:13;;;;;;;;;;;13.30;80.30;;;;;;6244657;23;19923;-75
2022/03/22 09:16:39;;;;;;;;;;;13.10;81.70;;;;;;6244360;23;20225;-78
2022/03/22 09:19:05;;;;;;;;;;;13.10;81.90;;;;;;6245160;23;20301;-77
2022/03/22 09:21:30;;;;;;;;;;;13.10;81.00;;;;;;6245581;23;19904;-78
2022/03/22 09:23:59;;;;;;;;;;;12.80;81.00;;;;;;6218730;23;20304;-77
2022/03/22 09:26:25;;;;;;;;;;;13.10;79.20;;;;;;6246409;23;19927;-77
2022/03/22 09:28:53;;;;;;;;;;;13.50;79.80;;;;;;6246380;23;19957;-78
2022/03/22 09:31:20;;;;;;;;;;;13.80;76.00;;;;;;6245324;23;20390;-79
2022/03/22 09:33:48;;;;;;;;;;;13.30;74.00;;;;;;6245409;23;20398;-77
2022/03/22 09:36:14;;;;;;;;;;;13.00;73.90;;;;;;6245432;23;19903;-77
2022/03/22 09:38:40;;;;;;;;;;;13.00;76.40;;;;;;6245191;23;20210;-77
2022/03/22 09:41:06;;;;;;;;;;;13.20;78.60;;;;;;6246441;23;19911;-77
2022/03/22 09:43:33;;;;;;;;;;;13.20;76.70;;;;;;6245318;23;19904;-78
2022/03/22 09:46:01;;;;;;;;;;;13.10;75.10;;;;;;6245631;23;20308;-78
2022/03/22 09:48:28;;;;;;;;;;;13.10;74.80;;;;;;6244272;23;19950;-79
2022/03/22 09:53:53;;;;;;;;;;;12.90;76.10;;;;;;6245766;23;19996;-77
2022/03/22 09:56:20;;;;;;;;;;;13.00;76.10;;;;;;6244742;23;19904;-77
2022/03/22 09:58:46;;;;;;;;;;;12.90;77.60;;;;;;6245184;23;19957;-77
2022/03/22 10:01:12;;;;;;;;;;;12.80;78.80;;;;;;6217181;23;19987;-76
2022/03/22 10:03:42;;;;;;;;;;;13.20;79.50;;;;;;6218382;23;19914;-78
2022/03/22 10:06:11;;;;;;;;;;;13.60;76.60;;;;;;6218211;23;19926;-78
2022/03/22 10:08:37;;;;;;;;;;;14.00;69.60;;;;;;6245265;23;20027;-78
2022/03/22 10:11:02;;;;;;;;;;;14.00;71.90;;;;;;6245681;23;19904;-77
2022/03/22 10:13:29;;;;;;;;;;;14.20;70.40;;;;;;6245857;23;19954;-78
2022/03/22 10:16:04;;;;;;;;;;;14.10;70.10;;;;;;6245356;23;19904;-78
2022/03/22 10:18:36;;;;;;;;;;;13.80;69.50;;;;;;6244673;23;19915;-79
2022/03/22 10:21:03;;;;;;;;;;;13.80;67.30;;;;;;6245765;23;19949;-78
2022/03/22 10:23:33;;;;;;;;;;;13.80;66.00;;;;;;6244427;23;19904;-79
2022/03/22 10:26:03;;;;;;;;;;;14.10;65.80;;;;;;6247879;23;19903;-79
2022/03/22 10:28:29;;;;;;;;;;;14.10;67.20;;;;;;6246407;23;19904;-77
2022/03/22 10:30:56;;;;;;;;;;;14.30;68.80;;;;;;6244976;23;19938;-78
2022/03/22 10:33:22;;;;;;;;;;;14.20;68.40;;;;;;6245132;23;20041;-78
2022/03/22 10:35:48;;;;;;;;;;;14.30;72.10;;;;;;6245387;23;19903;-77
2022/03/22 10:38:15;;;;;;;;;;;14.60;79.80;;;;;;6217774;23;19986;-76
2022/03/22 10:40:44;;;;;;;;;;;14.90;81.60;;;;;;6246197;23;19907;-78
2022/03/22 10:43:18;;;;;;;;;;;15.10;80.80;;;;;;6246816;23;19904;-77
2022/03/22 10:45:46;;;;;;;;;;;15.20;79.50;;;;;;6246454;23;20260;-78
2022/03/22 10:48:15;;;;;;;;;;;15.40;78.90;;;;;;6246557;23;19978;-77
2022/03/22 10:53:45;;;;;;;;;;;15.80;76.80;;;;;;6247173;23;19961;-77
2022/03/22 10:56:11;;;;;;;;;;;16.00;88.00;;;;;;6246308;23;19948;-77
2022/03/22 10:58:37;;;;;;;;;;;16.00;83.40;;;;;;6246728;23;20045;-78
2022/03/22 11:01:05;;;;;;;;;;;15.90;84.90;;;;;;6246697;23;19903;-79
2022/03/22 11:03:32;;;;;;;;;;;15.80;81.70;;;;;;6246718;23;19904;-79
2022/03/22 11:06:02;;;;;;;;;;;15.60;82.70;;;;;;6245628;23;19907;-72
2022/03/22 11:08:28;;;;;;;;;;;15.70;77.90;;;;;;6246059;23;19911;-72
2022/03/22 11:10:54;;;;;;;;;;;16.00;82.50;;;;;;6246272;23;20236;-78
2022/03/22 11:13:23;;;;;;;;;;;16.30;82.10;;;;;;6246474;23;19911;-79
2022/03/22 11:15:50;;;;;;;;;;;16.40;81.50;;;;;;6248582;23;20238;-79
2022/03/22 11:18:18;;;;;;;;;;;16.50;86.50;;;;;;6221397;23;19907;-77
2022/03/22 11:20:51;;;;;;;;;;;16.60;85.30;;;;;;6245288;23;19908;-77
2022/03/22 11:23:20;;;;;;;;;;;16.30;84.00;;;;;;6246762;23;19904;-76
2022/03/22 11:25:46;;;;;;;;;;;16.30;81.00;;;;;;6246042;23;20236;-77
2022/03/22 11:28:13;;;;;;;;;;;16.30;90.00;;;;;;6246512;23;19938;-76
2022/03/22 11:30:40;;;;;;;;;;;16.60;84.20;;;;;;6246542;23;19953;-74
2022/03/22 11:35:56;;;;;;;;;;;17.10;81.70;;;;;;6246596;23;19986;-75
2022/03/22 11:38:41;;;;;;;;;;;17.00;81.00;;;;;;6246115;23;20004;-75
2022/03/22 11:44:11;;;;;;;;;;;17.00;82.00;;;;;;6246372;23;19987;-74
2022/03/22 11:46:37;;;;;;;;;;;16.90;79.80;;;;;;6245847;23;19994;-74
2022/03/22 11:49:13;;;;;;;;;;;16.40;81.60;;;;;;6245866;23;19983;-77
2022/03/22 11:51:53;;;;;;;;;;;16.10;79.70;;;;;;6244665;23;20289;-76
2022/03/22 11:54:19;;;;;;;;;;;16.00;82.20;;;;;;6246125;23;19903;-75
2022/03/22 11:56:47;;;;;;;;;;;15.80;81.50;;;;;;6245912;23;19986;-75
2022/03/22 11:59:17;;;;;;;;;;;15.60;82.90;;;;;;6245822;23;20407;-78
2022/03/22 12:01:56;;;;;;;;;;;15.60;84.20;;;;;;6245161;23;19958;-79
2022/03/22 12:04:31;;;;;;;;;;;15.90;85.30;;;;;;6245726;23;20313;-79
2022/03/22 12:06:57;;;;;;;;;;;16.40;82.50;;;;;;6219833;23;19904;-78
2022/03/22 12:09:26;;;;;;;;;;;16.50;81.90;;;;;;6245135;23;19988;-79
2022/03/22 12:11:54;;;;;;;;;;;16.90;82.30;;;;;;6245438;23;19911;-78
2022/03/22 12:14:35;;;;;;;;;;;17.10;79.50;;;;;;6244359;23;20229;-78
2022/03/22 12:17:01;;;;;;;;;;;17.10;79.50;;;;;;6246577;23;19903;-78
2022/03/22 12:19:28;;;;;;;;;;;17.00;80.90;;;;;;6251000;23;19930;-80
2022/03/22 12:21:55;;;;;;;;;;;16.70;80.80;;;;;;6223666;23;19904;-78
2022/03/22 12:24:36;;;;;;;;;;;16.60;81.60;;;;;;6219259;23;19927;-78
2022/03/22 12:27:05;;;;;;;;;;;16.70;82.10;;;;;;6219679;23;19904;-78
2022/03/22 12:29:36;;;;;;;;;;;17.10;82.60;;;;;;6219449;23;19907;-78
2022/03/22 12:32:06;;;;;;;;;;;17.30;82.20;;;;;;6246764;23;19912;-78
2022/03/22 12:34:39;;;;;;;;;;;17.50;79.60;;;;;;6219070;23;19910;-78
2022/03/22 12:37:08;;;;;;;;;;;17.50;78.70;;;;;;6246261;23;19915;-77
2022/03/22 12:39:37;;;;;;;;;;;17.20;79.40;;;;;;6246372;23;19949;-78
2022/03/22 12:42:04;;;;;;;;;;;17.00;87.40;;;;;;6246119;23;19949;-77
2022/03/22 12:44:31;;;;;;;;;;;17.00;80.60;;;;;;6246643;23;19903;-79
2022/03/22 12:46:57;;;;;;;;;;;16.90;81.20;;;;;;6245255;23;19946;-78
2022/03/22 12:49:24;;;;;;;;;;;16.50;81.70;;;;;;6245306;23;19904;-78
2022/03/22 12:51:50;;;;;;;;;;;16.50;81.50;;;;;;6217947;23;20221;-78
2022/03/22 12:54:17;;;;;;;;;;;16.40;80.80;;;;;;6245707;23;20327;-79
2022/03/22 12:56:49;;;;;;;;;;;16.30;82.50;;;;;;6246331;23;19903;-77
2022/03/22 12:59:22;;;;;;;;;;;16.00;83.10;;;;;;6244140;23;19930;-76
2022/03/22 13:01:56;;;;;;;;;;;16.10;82.60;;;;;;6244723;23;19986;-76
2022/03/22 13:04:28;;;;;;;;;;;16.30;81.70;;;;;;6245911;23;19903;-76
2022/03/22 13:06:57;;;;;;;;;;;16.30;82.30;;;;;;6245587;23;19975;-77
2022/03/22 13:12:11;;;;;;;;;;;16.20;79.50;;;;;;6198790;23;19991;-76
2022/03/22 13:17:21;;;;;;;;;;;16.40;78.40;;;;;;6246467;23;19911;-76
2022/03/22 13:19:47;;;;;;;;;;;16.50;78.70;;;;;;6246461;23;19903;-78
2022/03/22 13:22:17;;;;;;;;;;;16.70;78.60;;;;;;6246688;23;19907;-77
2022/03/22 13:24:43;;;;;;;;;;;16.80;78.60;;;;;;6246443;23;19907;-76
2022/03/22 13:27:10;;;;;;;;;;;16.80;77.60;;;;;;6246374;23;19985;-73
2022/03/22 13:29:40;;;;;;;;;;;16.70;77.50;;;;;;6245959;23;19986;-75
2022/03/22 13:32:07;;;;;;;;;;;16.90;77.10;;;;;;6245344;23;19912;-76
2022/03/22 13:34:35;;;;;;;;;;;17.00;75.70;;;;;;6245863;23;19904;-77
2022/03/22 13:37:09;;;;;;;;;;;17.20;76.20;;;;;;6218927;23;19903;-76
2022/03/22 13:39:36;;;;;;;;;;;17.20;75.00;;;;;;6246483;23;19931;-76
2022/03/22 13:42:05;;;;;;;;;;;17.00;75.60;;;;;;6246182;23;20221;-77
2022/03/22 13:44:31;;;;;;;;;;;16.80;75.30;;;;;;6246564;23;19911;-77
2022/03/22 13:46:59;;;;;;;;;;;16.90;76.30;;;;;;6246724;23;20204;-77
2022/03/22 13:49:34;;;;;;;;;;;16.80;77.80;;;;;;6245834;23;19911;-77
2022/03/22 13:52:23;;;;;;;;;;;16.70;77.00;;;;;;6246023;23;19920;-78
2022/03/22 13:54:53;;;;;;;;;;;16.80;77.10;;;;;;6245762;23;19903;-77
2022/03/22 13:57:19;;;;;;;;;;;16.70;76.50;;;;;;6245556;23;19957;-77
2022/03/22 13:59:44;;;;;;;;;;;16.70;76.50;;;;;;6245511;23;19924;-77
2022/03/22 14:02:10;;;;;;;;;;;16.40;78.00;;;;;;6245654;23;19904;-75
2022/03/22 14:04:36;;;;;;;;;;;16.50;77.60;;;;;;6246302;23;19911;-77
2022/03/22 14:07:03;;;;;;;;;;;16.50;76.40;;;;;;6218743;23;19904;-77
2022/03/22 14:09:29;;;;;;;;;;;16.60;76.00;;;;;;6245652;23;19903;-78
2022/03/22 14:11:57;;;;;;;;;;;16.60;76.10;;;;;;6246427;23;19951;-78
2022/03/22 14:14:26;;;;;;;;;;;16.70;75.30;;;;;;6219035;23;19904;-78
2022/03/22 14:17:11;;;;;;;;;;;16.70;75.40;;;;;;6221731;23;19935;-73
2022/03/22 14:19:37;;;;;;;;;;;16.50;76.20;;;;;;6248187;23;20335;-79
2022/03/22 14:22:03;;;;;;;;;;;16.50;76.40;;;;;;6221493;23;19904;-79
2022/03/22 14:24:28;;;;;;;;;;;16.70;76.70;;;;;;6248959;23;19987;-80
2022/03/22 14:26:55;;;;;;;;;;;16.50;76.70;;;;;;6248357;23;19915;-78
2022/03/22 14:29:21;;;;;;;;;;;16.40;77.60;;;;;;6248200;23;19904;-79
2022/03/22 14:31:47;;;;;;;;;;;16.20;78.00;;;;;;6248477;23;19996;-79
2022/03/22 14:35:46;;;;;;;;;;;16.20;77.80;;;;;;6248306;23;19940;-79
2022/03/22 14:36:59;;;;;;;;;;;16.20;77.50;;;;;;6247867;23;20224;-79
2022/03/22 14:39:24;;;;;;;;;;;16.30;77.70;;;;;;6221075;23;19947;-80
2022/03/22 14:41:50;;;;;;;;;;;16.30;77.00;;;;;;6248561;23;19903;-79
2022/03/22 14:44:16;;;;;;;;;;;16.30;77.60;;;;;;6247961;23;19965;-79
2022/03/22 14:46:42;;;;;;;;;;;16.30;77.20;;;;;;6248416;23;19986;-81
2022/03/22 14:49:08;;;;;;;;;;;16.20;77.20;;;;;;6247057;23;20335;-81
2022/03/22 14:54:21;;;;;;;;;;;16.00;77.40;;;;;;6247274;23;19951;-80
2022/03/22 14:59:31;;;;;;;;;;;15.50;78.70;;;;;;6246301;23;19923;-79
2022/03/22 15:01:57;;;;;;;;;;;15.60;78.00;;;;;;6246495;23;19904;-78
2022/03/22 15:04:23;;;;;;;;;;;15.70;78.10;;;;;;6247183;23;20343;-81
2022/03/22 15:06:49;;;;;;;;;;;15.90;77.20;;;;;;6219427;23;19904;-80
2022/03/22 15:09:16;;;;;;;;;;;15.70;77.60;;;;;;6246411;23;19907;-78
2022/03/22 15:11:42;;;;;;;;;;;15.80;77.60;;;;;;6218109;23;19954;-78
2022/03/22 15:14:11;;;;;;;;;;;15.80;77.20;;;;;;6219968;23;20232;-79
2022/03/22 15:16:37;;;;;;;;;;;15.80;78.30;;;;;;6248471;23;20240;-78
2022/03/22 15:19:04;;;;;;;;;;;15.90;78.50;;;;;;6254521;23;19923;-79